sensor_id;sensor_type;location;lat;lon;timestamp;P1;durP1;ratioP1;P2;durP2;ratioP2
76576;SDS011;65441;44.748;37.600;2023-06-04T00:02:16;6.15;;;2.95;;
76576;SDS011;65441;44.748;37.600;2023-06-04T00:04:45;8.70;;;3.30;;
76576;SDS011;65441;44.748;37.600;2023-06-04T00:07:14;8.48;;;2.95;;
76576;SDS011;65441;44.748;37.600;2023-06-04T00:09:45;11.07;;;3.38;;
76576;SDS011;65441;44.748;37.600;2023-06-04T00:12:14;6.80;;;3.30;;
76576;SDS011;65441;44.748;37.600;2023-06-04T00:14:43;8.88;;;3.45;;
76576;SDS011;65441;44.748;37.600;2023-06-04T00:17:12;7.30;;;2.80;;
76576;SDS011;65441;44.748;37.600;2023-06-04T00:19:41;6.57;;;2.90;;
76576;SDS011;65441;44.748;37.600;2023-06-04T00:22:10;7.57;;;2.65;;
76576;SDS011;65441;44.748;37.600;2023-06-04T00:24:39;6.70;;;2.85;;
76576;SDS011;65441;44.748;37.600;2023-06-04T00:27:09;8.57;;;3.30;;
76576;SDS011;65441;44.748;37.600;2023-06-04T00:29:38;7.65;;;2.65;;
76576;SDS011;65441;44.748;37.600;2023-06-04T00:32:07;6.82;;;2.55;;
76576;SDS011;65441;44.748;37.600;2023-06-04T00:34:36;6.72;;;3.05;;
76576;SDS011;65441;44.748;37.600;2023-06-04T00:37:05;5.88;;;2.70;;
76576;SDS011;65441;44.748;37.600;2023-06-04T00:39:34;6.72;;;2.90;;
76576;SDS011;65441;44.748;37.600;2023-06-04T00:42:03;7.20;;;2.50;;
76576;SDS011;65441;44.748;37.600;2023-06-04T00:44:33;7.85;;;2.67;;
76576;SDS011;65441;44.748;37.600;2023-06-04T00:47:04;6.70;;;3.00;;
76576;SDS011;65441;44.748;37.600;2023-06-04T00:49:33;6.47;;;2.63;;
76576;SDS011;65441;44.748;37.600;2023-06-04T00:52:02;7.13;;;2.72;;
76576;SDS011;65441;44.748;37.600;2023-06-04T00:54:32;6.85;;;2.90;;
76576;SDS011;65441;44.748;37.600;2023-06-04T00:57:01;6.80;;;2.63;;
76576;SDS011;65441;44.748;37.600;2023-06-04T00:59:30;7.95;;;2.47;;
76576;SDS011;65441;44.748;37.600;2023-06-04T01:02:03;7.15;;;2.67;;
76576;SDS011;65441;44.748;37.600;2023-06-04T01:04:37;6.30;;;2.10;;
76576;SDS011;65441;44.748;37.600;2023-06-04T01:07:13;5.82;;;2.38;;
76576;SDS011;65441;44.748;37.600;2023-06-04T01:09:44;6.65;;;2.63;;
76576;SDS011;65441;44.748;37.600;2023-06-04T01:12:13;7.40;;;2.60;;
76576;SDS011;65441;44.748;37.600;2023-06-04T01:14:42;7.55;;;2.42;;
76576;SDS011;65441;44.748;37.600;2023-06-04T01:17:13;6.15;;;2.58;;
76576;SDS011;65441;44.748;37.600;2023-06-04T01:19:53;6.57;;;2.70;;
76576;SDS011;65441;44.748;37.600;2023-06-04T01:22:36;7.55;;;2.83;;
76576;SDS011;65441;44.748;37.600;2023-06-04T01:25:12;10.75;;;2.45;;
76576;SDS011;65441;44.748;37.600;2023-06-04T01:27:47;6.70;;;2.88;;
76576;SDS011;65441;44.748;37.600;2023-06-04T01:30:19;5.82;;;2.50;;
76576;SDS011;65441;44.748;37.600;2023-06-04T01:32:53;7.40;;;2.83;;
76576;SDS011;65441;44.748;37.600;2023-06-04T01:35:22;7.70;;;2.53;;
76576;SDS011;65441;44.748;37.600;2023-06-04T01:37:51;5.47;;;2.45;;
76576;SDS011;65441;44.748;37.600;2023-06-04T01:40:21;10.80;;;2.58;;
76576;SDS011;65441;44.748;37.600;2023-06-04T01:42:50;9.18;;;2.28;;
76576;SDS011;65441;44.748;37.600;2023-06-04T01:45:20;6.00;;;2.50;;
76576;SDS011;65441;44.748;37.600;2023-06-04T01:47:50;6.00;;;2.30;;
76576;SDS011;65441;44.748;37.600;2023-06-04T01:50:20;5.97;;;2.53;;
76576;SDS011;65441;44.748;37.600;2023-06-04T01:52:49;8.88;;;2.60;;
76576;SDS011;65441;44.748;37.600;2023-06-04T01:55:19;8.25;;;2.20;;
76576;SDS011;65441;44.748;37.600;2023-06-04T01:57:48;6.03;;;2.35;;
76576;SDS011;65441;44.748;37.600;2023-06-04T02:00:17;7.18;;;2.67;;
76576;SDS011;65441;44.748;37.600;2023-06-04T02:02:46;6.43;;;2.33;;
76576;SDS011;65441;44.748;37.600;2023-06-04T02:05:15;5.32;;;2.47;;
76576;SDS011;65441;44.748;37.600;2023-06-04T02:07:48;6.07;;;2.58;;
76576;SDS011;65441;44.748;37.600;2023-06-04T02:10:18;7.22;;;2.70;;
76576;SDS011;65441;44.748;37.600;2023-06-04T02:12:55;5.97;;;2.25;;
76576;SDS011;65441;44.748;37.600;2023-06-04T02:15:26;5.93;;;2.65;;
76576;SDS011;65441;44.748;37.600;2023-06-04T02:17:56;5.60;;;2.42;;
76576;SDS011;65441;44.748;37.600;2023-06-04T02:20:26;7.72;;;2.63;;
76576;SDS011;65441;44.748;37.600;2023-06-04T02:22:59;6.20;;;2.80;;
76576;SDS011;65441;44.748;37.600;2023-06-04T02:25:28;9.77;;;2.67;;
76576;SDS011;65441;44.748;37.600;2023-06-04T02:27:57;6.00;;;2.80;;
76576;SDS011;65441;44.748;37.600;2023-06-04T02:30:26;6.00;;;2.35;;
76576;SDS011;65441;44.748;37.600;2023-06-04T02:32:55;8.95;;;2.50;;
76576;SDS011;65441;44.748;37.600;2023-06-04T02:35:23;6.85;;;3.00;;
76576;SDS011;65441;44.748;37.600;2023-06-04T02:37:52;7.35;;;2.38;;
76576;SDS011;65441;44.748;37.600;2023-06-04T02:40:26;6.93;;;3.15;;
76576;SDS011;65441;44.748;37.600;2023-06-04T02:42:55;6.28;;;2.50;;
76576;SDS011;65441;44.748;37.600;2023-06-04T02:45:24;6.15;;;2.42;;
76576;SDS011;65441;44.748;37.600;2023-06-04T02:47:53;6.68;;;2.40;;
76576;SDS011;65441;44.748;37.600;2023-06-04T02:50:22;6.40;;;2.38;;
76576;SDS011;65441;44.748;37.600;2023-06-04T02:52:51;7.70;;;2.53;;
76576;SDS011;65441;44.748;37.600;2023-06-04T02:55:20;7.55;;;2.78;;
76576;SDS011;65441;44.748;37.600;2023-06-04T02:57:52;5.93;;;2.60;;
76576;SDS011;65441;44.748;37.600;2023-06-04T03:00:20;9.43;;;2.47;;
76576;SDS011;65441;44.748;37.600;2023-06-04T03:02:49;7.70;;;2.67;;
76576;SDS011;65441;44.748;37.600;2023-06-04T03:05:18;6.18;;;2.28;;
76576;SDS011;65441;44.748;37.600;2023-06-04T03:07:50;7.22;;;2.45;;
76576;SDS011;65441;44.748;37.600;2023-06-04T03:10:20;8.98;;;3.17;;
76576;SDS011;65441;44.748;37.600;2023-06-04T03:12:48;8.73;;;2.90;;
76576;SDS011;65441;44.748;37.600;2023-06-04T03:15:18;6.10;;;2.70;;
76576;SDS011;65441;44.748;37.600;2023-06-04T03:17:48;10.98;;;2.55;;
76576;SDS011;65441;44.748;37.600;2023-06-04T03:20:17;11.15;;;2.55;;
76576;SDS011;65441;44.748;37.600;2023-06-04T03:22:51;7.55;;;3.00;;
76576;SDS011;65441;44.748;37.600;2023-06-04T03:25:20;7.15;;;2.75;;
76576;SDS011;65441;44.748;37.600;2023-06-04T03:27:49;8.55;;;2.67;;
76576;SDS011;65441;44.748;37.600;2023-06-04T03:30:19;6.45;;;2.67;;
76576;SDS011;65441;44.748;37.600;2023-06-04T03:32:56;5.65;;;2.45;;
76576;SDS011;65441;44.748;37.600;2023-06-04T03:35:26;7.28;;;2.72;;
76576;SDS011;65441;44.748;37.600;2023-06-04T03:37:54;9.93;;;2.97;;
76576;SDS011;65441;44.748;37.600;2023-06-04T03:40:23;5.75;;;2.30;;
76576;SDS011;65441;44.748;37.600;2023-06-04T03:42:52;6.47;;;2.50;;
76576;SDS011;65441;44.748;37.600;2023-06-04T03:45:25;9.90;;;2.95;;
76576;SDS011;65441;44.748;37.600;2023-06-04T03:47:56;8.57;;;2.72;;
76576;SDS011;65441;44.748;37.600;2023-06-04T03:50:26;8.10;;;2.63;;
76576;SDS011;65441;44.748;37.600;2023-06-04T03:52:56;5.60;;;2.67;;
76576;SDS011;65441;44.748;37.600;2023-06-04T03:55:26;7.22;;;2.60;;
76576;SDS011;65441;44.748;37.600;2023-06-04T03:57:55;7.93;;;2.42;;
76576;SDS011;65441;44.748;37.600;2023-06-04T04:00:26;7.00;;;2.22;;
76576;SDS011;65441;44.748;37.600;2023-06-04T04:02:57;7.15;;;2.53;;
76576;SDS011;65441;44.748;37.600;2023-06-04T04:05:29;6.30;;;2.33;;
76576;SDS011;65441;44.748;37.600;2023-06-04T04:07:59;6.05;;;2.55;;
76576;SDS011;65441;44.748;37.600;2023-06-04T04:10:31;7.57;;;2.60;;
76576;SDS011;65441;44.748;37.600;2023-06-04T04:13:00;10.00;;;2.33;;
76576;SDS011;65441;44.748;37.600;2023-06-04T04:15:36;7.45;;;2.58;;
76576;SDS011;65441;44.748;37.600;2023-06-04T04:18:05;6.78;;;2.50;;
76576;SDS011;65441;44.748;37.600;2023-06-04T04:20:38;5.35;;;2.38;;
76576;SDS011;65441;44.748;37.600;2023-06-04T04:23:11;6.10;;;2.35;;
76576;SDS011;65441;44.748;37.600;2023-06-04T04:25:43;6.82;;;2.50;;
76576;SDS011;65441;44.748;37.600;2023-06-04T04:28:15;6.18;;;2.42;;
76576;SDS011;65441;44.748;37.600;2023-06-04T04:30:46;6.55;;;2.17;;
76576;SDS011;65441;44.748;37.600;2023-06-04T04:33:16;8.90;;;2.30;;
76576;SDS011;65441;44.748;37.600;2023-06-04T04:35:47;6.10;;;2.25;;
76576;SDS011;65441;44.748;37.600;2023-06-04T04:38:20;9.02;;;2.92;;
76576;SDS011;65441;44.748;37.600;2023-06-04T04:40:57;6.68;;;2.80;;
76576;SDS011;65441;44.748;37.600;2023-06-04T04:43:32;5.80;;;2.80;;
76576;SDS011;65441;44.748;37.600;2023-06-04T04:46:14;6.15;;;2.83;;
76576;SDS011;65441;44.748;37.600;2023-06-04T04:48:47;6.30;;;2.65;;
76576;SDS011;65441;44.748;37.600;2023-06-04T04:51:16;7.40;;;2.88;;
76576;SDS011;65441;44.748;37.600;2023-06-04T04:53:45;11.02;;;2.65;;
76576;SDS011;65441;44.748;37.600;2023-06-04T04:56:17;5.80;;;2.80;;
76576;SDS011;65441;44.748;37.600;2023-06-04T04:58:49;7.57;;;2.80;;
76576;SDS011;65441;44.748;37.600;2023-06-04T05:01:21;8.57;;;2.85;;
76576;SDS011;65441;44.748;37.600;2023-06-04T05:03:51;8.60;;;2.70;;
76576;SDS011;65441;44.748;37.600;2023-06-04T05:06:22;9.45;;;2.90;;
76576;SDS011;65441;44.748;37.600;2023-06-04T05:08:52;7.75;;;2.88;;
76576;SDS011;65441;44.748;37.600;2023-06-04T05:11:20;8.13;;;3.00;;
76576;SDS011;65441;44.748;37.600;2023-06-04T05:13:53;6.30;;;2.75;;
76576;SDS011;65441;44.748;37.600;2023-06-04T05:16:23;8.77;;;3.08;;
76576;SDS011;65441;44.748;37.600;2023-06-04T05:21:27;8.85;;;2.60;;
76576;SDS011;65441;44.748;37.600;2023-06-04T05:24:02;9.25;;;3.28;;
76576;SDS011;65441;44.748;37.600;2023-06-04T05:26:34;7.90;;;2.78;;
76576;SDS011;65441;44.748;37.600;2023-06-04T05:29:14;8.77;;;3.15;;
76576;SDS011;65441;44.748;37.600;2023-06-04T05:31:46;6.90;;;3.33;;
76576;SDS011;65441;44.748;37.600;2023-06-04T05:34:19;8.95;;;3.03;;
76576;SDS011;65441;44.748;37.600;2023-06-04T05:36:49;7.18;;;2.92;;
76576;SDS011;65441;44.748;37.600;2023-06-04T05:39:20;10.88;;;2.83;;
76576;SDS011;65441;44.748;37.600;2023-06-04T05:41:59;9.27;;;2.75;;
76576;SDS011;65441;44.748;37.600;2023-06-04T05:44:30;9.43;;;3.03;;
76576;SDS011;65441;44.748;37.600;2023-06-04T05:47:01;8.82;;;3.53;;
76576;SDS011;65441;44.748;37.600;2023-06-04T05:49:33;7.38;;;3.13;;
76576;SDS011;65441;44.748;37.600;2023-06-04T05:52:03;7.93;;;3.53;;
76576;SDS011;65441;44.748;37.600;2023-06-04T05:54:32;9.05;;;2.95;;
76576;SDS011;65441;44.748;37.600;2023-06-04T05:57:04;9.48;;;3.30;;
76576;SDS011;65441;44.748;37.600;2023-06-04T05:59:33;10.20;;;3.10;;
76576;SDS011;65441;44.748;37.600;2023-06-04T06:02:07;8.98;;;3.60;;
76576;SDS011;65441;44.748;37.600;2023-06-04T06:04:37;6.95;;;3.00;;
76576;SDS011;65441;44.748;37.600;2023-06-04T06:07:06;11.68;;;3.60;;
76576;SDS011;65441;44.748;37.600;2023-06-04T06:09:35;8.43;;;2.78;;
76576;SDS011;65441;44.748;37.600;2023-06-04T06:12:06;10.63;;;3.22;;
76576;SDS011;65441;44.748;37.600;2023-06-04T06:14:37;7.28;;;3.42;;
76576;SDS011;65441;44.748;37.600;2023-06-04T06:17:10;9.38;;;3.75;;
76576;SDS011;65441;44.748;37.600;2023-06-04T06:19:40;11.52;;;3.30;;
76576;SDS011;65441;44.748;37.600;2023-06-04T06:22:09;8.80;;;3.63;;
76576;SDS011;65441;44.748;37.600;2023-06-04T06:24:39;8.13;;;3.08;;
76576;SDS011;65441;44.748;37.600;2023-06-04T06:27:08;9.85;;;3.13;;
76576;SDS011;65441;44.748;37.600;2023-06-04T06:29:37;9.38;;;3.45;;
76576;SDS011;65441;44.748;37.600;2023-06-04T06:32:06;8.15;;;3.38;;
76576;SDS011;65441;44.748;37.600;2023-06-04T06:34:41;10.18;;;3.40;;
76576;SDS011;65441;44.748;37.600;2023-06-04T06:37:10;7.63;;;3.17;;
76576;SDS011;65441;44.748;37.600;2023-06-04T06:39:39;7.78;;;3.10;;
76576;SDS011;65441;44.748;37.600;2023-06-04T06:42:08;7.63;;;2.70;;
76576;SDS011;65441;44.748;37.600;2023-06-04T06:44:41;8.82;;;3.60;;
76576;SDS011;65441;44.748;37.600;2023-06-04T06:47:10;10.93;;;3.22;;
76576;SDS011;65441;44.748;37.600;2023-06-04T06:49:42;7.03;;;3.30;;
76576;SDS011;65441;44.748;37.600;2023-06-04T06:52:11;7.47;;;3.47;;
76576;SDS011;65441;44.748;37.600;2023-06-04T06:54:39;7.35;;;3.47;;
76576;SDS011;65441;44.748;37.600;2023-06-04T06:57:08;7.57;;;3.13;;
76576;SDS011;65441;44.748;37.600;2023-06-04T06:59:37;8.00;;;3.75;;
76576;SDS011;65441;44.748;37.600;2023-06-04T07:02:06;8.50;;;3.60;;
76576;SDS011;65441;44.748;37.600;2023-06-04T07:04:35;7.00;;;3.00;;
76576;SDS011;65441;44.748;37.600;2023-06-04T07:07:05;9.30;;;3.30;;
76576;SDS011;65441;44.748;37.600;2023-06-04T07:09:35;8.77;;;3.63;;
76576;SDS011;65441;44.748;37.600;2023-06-04T07:12:04;6.53;;;2.78;;
76576;SDS011;65441;44.748;37.600;2023-06-04T07:14:33;9.77;;;4.03;;
76576;SDS011;65441;44.748;37.600;2023-06-04T07:17:02;7.25;;;3.05;;
76576;SDS011;65441;44.748;37.600;2023-06-04T07:19:31;7.97;;;3.60;;
76576;SDS011;65441;44.748;37.600;2023-06-04T07:22:00;8.35;;;3.65;;
76576;SDS011;65441;44.748;37.600;2023-06-04T07:24:30;11.40;;;3.80;;
76576;SDS011;65441;44.748;37.600;2023-06-04T07:26:59;9.68;;;3.80;;
76576;SDS011;65441;44.748;37.600;2023-06-04T07:29:28;8.98;;;3.90;;
76576;SDS011;65441;44.748;37.600;2023-06-04T07:31:57;7.53;;;3.80;;
76576;SDS011;65441;44.748;37.600;2023-06-04T07:34:26;9.38;;;3.70;;
76576;SDS011;65441;44.748;37.600;2023-06-04T07:36:55;9.00;;;3.60;;
76576;SDS011;65441;44.748;37.600;2023-06-04T07:39:24;7.35;;;3.28;;
76576;SDS011;65441;44.748;37.600;2023-06-04T07:41:54;11.00;;;4.10;;
76576;SDS011;65441;44.748;37.600;2023-06-04T07:44:23;8.38;;;3.35;;
76576;SDS011;65441;44.748;37.600;2023-06-04T07:46:54;7.55;;;3.10;;
76576;SDS011;65441;44.748;37.600;2023-06-04T07:49:25;11.98;;;2.83;;
76576;SDS011;65441;44.748;37.600;2023-06-04T07:51:54;9.18;;;3.20;;
76576;SDS011;65441;44.748;37.600;2023-06-04T07:54:23;6.88;;;2.70;;
76576;SDS011;65441;44.748;37.600;2023-06-04T07:56:52;4.32;;;1.85;;
76576;SDS011;65441;44.748;37.600;2023-06-04T07:59:24;6.30;;;2.75;;
76576;SDS011;65441;44.748;37.600;2023-06-04T08:01:56;7.90;;;2.55;;
76576;SDS011;65441;44.748;37.600;2023-06-04T08:04:26;6.97;;;2.45;;
76576;SDS011;65441;44.748;37.600;2023-06-04T08:07:04;6.25;;;2.60;;
76576;SDS011;65441;44.748;37.600;2023-06-04T08:09:33;7.88;;;2.50;;
76576;SDS011;65441;44.748;37.600;2023-06-04T08:12:04;6.55;;;2.33;;
76576;SDS011;65441;44.748;37.600;2023-06-04T08:14:38;8.38;;;2.17;;
76576;SDS011;65441;44.748;37.600;2023-06-04T08:17:10;5.72;;;2.22;;
76576;SDS011;65441;44.748;37.600;2023-06-04T08:19:43;5.90;;;1.98;;
76576;SDS011;65441;44.748;37.600;2023-06-04T08:22:17;7.25;;;2.30;;
76576;SDS011;65441;44.748;37.600;2023-06-04T08:24:54;6.88;;;2.92;;
76576;SDS011;65441;44.748;37.600;2023-06-04T08:27:45;7.20;;;2.40;;
76576;SDS011;65441;44.748;37.600;2023-06-04T08:30:37;7.22;;;2.20;;
76576;SDS011;65441;44.748;37.600;2023-06-04T08:33:11;6.93;;;2.30;;
76576;SDS011;65441;44.748;37.600;2023-06-04T08:35:46;6.85;;;2.03;;
76576;SDS011;65441;44.748;37.600;2023-06-04T08:38:17;6.82;;;2.05;;
76576;SDS011;65441;44.748;37.600;2023-06-04T08:40:49;6.43;;;2.28;;
76576;SDS011;65441;44.748;37.600;2023-06-04T08:43:25;5.35;;;1.75;;
76576;SDS011;65441;44.748;37.600;2023-06-04T08:45:58;7.22;;;1.70;;
76576;SDS011;65441;44.748;37.600;2023-06-04T08:48:37;6.25;;;1.60;;
76576;SDS011;65441;44.748;37.600;2023-06-04T08:51:09;6.40;;;1.75;;
76576;SDS011;65441;44.748;37.600;2023-06-04T08:53:44;4.78;;;1.60;;
76576;SDS011;65441;44.748;37.600;2023-06-04T08:56:19;9.07;;;2.00;;
76576;SDS011;65441;44.748;37.600;2023-06-04T08:58:53;4.82;;;1.55;;
76576;SDS011;65441;44.748;37.600;2023-06-04T09:01:31;6.40;;;1.52;;
76576;SDS011;65441;44.748;37.600;2023-06-04T09:04:05;5.25;;;1.92;;
76576;SDS011;65441;44.748;37.600;2023-06-04T09:06:35;5.43;;;1.67;;
76576;SDS011;65441;44.748;37.600;2023-06-04T09:09:10;5.45;;;1.60;;
76576;SDS011;65441;44.748;37.600;2023-06-04T09:11:46;5.00;;;1.60;;
76576;SDS011;65441;44.748;37.600;2023-06-04T09:14:21;4.57;;;1.60;;
76576;SDS011;65441;44.748;37.600;2023-06-04T09:16:55;7.25;;;2.13;;
76576;SDS011;65441;44.748;37.600;2023-06-04T09:19:28;5.40;;;1.55;;
76576;SDS011;65441;44.748;37.600;2023-06-04T09:22:00;5.43;;;1.58;;
76576;SDS011;65441;44.748;37.600;2023-06-04T09:24:39;9.48;;;2.00;;
76576;SDS011;65441;44.748;37.600;2023-06-04T09:27:10;9.25;;;2.13;;
76576;SDS011;65441;44.748;37.600;2023-06-04T09:29:40;5.50;;;1.98;;
76576;SDS011;65441;44.748;37.600;2023-06-04T09:32:23;5.90;;;1.92;;
76576;SDS011;65441;44.748;37.600;2023-06-04T09:35:09;6.82;;;1.90;;
76576;SDS011;65441;44.748;37.600;2023-06-04T09:37:41;5.38;;;1.50;;
76576;SDS011;65441;44.748;37.600;2023-06-04T09:40:22;6.10;;;1.90;;
76576;SDS011;65441;44.748;37.600;2023-06-04T09:42:55;5.57;;;1.88;;
76576;SDS011;65441;44.748;37.600;2023-06-04T09:45:27;5.97;;;1.88;;
76576;SDS011;65441;44.748;37.600;2023-06-04T09:48:00;8.07;;;2.30;;
76576;SDS011;65441;44.748;37.600;2023-06-04T09:50:35;5.78;;;2.08;;
76576;SDS011;65441;44.748;37.600;2023-06-04T09:53:19;4.95;;;1.70;;
76576;SDS011;65441;44.748;37.600;2023-06-04T09:55:58;5.82;;;1.60;;
76576;SDS011;65441;44.748;37.600;2023-06-04T09:58:30;5.43;;;1.80;;
76576;SDS011;65441;44.748;37.600;2023-06-04T10:01:00;6.57;;;1.70;;
76576;SDS011;65441;44.748;37.600;2023-06-04T10:03:35;4.90;;;1.60;;
76576;SDS011;65441;44.748;37.600;2023-06-04T10:06:07;5.13;;;1.52;;
76576;SDS011;65441;44.748;37.600;2023-06-04T10:08:42;7.47;;;1.60;;
76576;SDS011;65441;44.748;37.600;2023-06-04T10:11:13;8.50;;;1.60;;
76576;SDS011;65441;44.748;37.600;2023-06-04T10:16:22;6.45;;;1.75;;
76576;SDS011;65441;44.748;37.600;2023-06-04T10:18:57;6.43;;;2.05;;
76576;SDS011;65441;44.748;37.600;2023-06-04T10:21:28;6.20;;;1.58;;
76576;SDS011;65441;44.748;37.600;2023-06-04T10:24:03;5.88;;;1.80;;
76576;SDS011;65441;44.748;37.600;2023-06-04T10:26:35;9.18;;;1.90;;
76576;SDS011;65441;44.748;37.600;2023-06-04T10:29:07;6.28;;;1.83;;
76576;SDS011;65441;44.748;37.600;2023-06-04T10:31:39;5.45;;;1.60;;
76576;SDS011;65441;44.748;37.600;2023-06-04T10:34:12;9.40;;;1.73;;
76576;SDS011;65441;44.748;37.600;2023-06-04T10:36:46;5.75;;;1.95;;
76576;SDS011;65441;44.748;37.600;2023-06-04T10:39:26;4.65;;;1.50;;
76576;SDS011;65441;44.748;37.600;2023-06-04T10:42:00;5.13;;;1.55;;
76576;SDS011;65441;44.748;37.600;2023-06-04T10:44:29;6.10;;;1.67;;
76576;SDS011;65441;44.748;37.600;2023-06-04T10:47:00;5.25;;;1.50;;
76576;SDS011;65441;44.748;37.600;2023-06-04T10:49:30;7.82;;;1.55;;
76576;SDS011;65441;44.748;37.600;2023-06-04T10:52:09;9.02;;;1.90;;
76576;SDS011;65441;44.748;37.600;2023-06-04T10:54:38;6.00;;;1.70;;
76576;SDS011;65441;44.748;37.600;2023-06-04T10:57:11;5.65;;;1.92;;
76576;SDS011;65441;44.748;37.600;2023-06-04T10:59:40;3.95;;;1.52;;
76576;SDS011;65441;44.748;37.600;2023-06-04T11:02:09;6.60;;;1.80;;
76576;SDS011;65441;44.748;37.600;2023-06-04T11:04:41;4.35;;;1.63;;
76576;SDS011;65441;44.748;37.600;2023-06-04T11:07:15;4.85;;;1.67;;
76576;SDS011;65441;44.748;37.600;2023-06-04T11:09:53;4.78;;;1.88;;
76576;SDS011;65441;44.748;37.600;2023-06-04T11:12:27;4.80;;;1.90;;
76576;SDS011;65441;44.748;37.600;2023-06-04T11:14:56;5.35;;;1.75;;
76576;SDS011;65441;44.748;37.600;2023-06-04T11:17:29;5.32;;;1.60;;
76576;SDS011;65441;44.748;37.600;2023-06-04T11:20:00;6.15;;;1.95;;
76576;SDS011;65441;44.748;37.600;2023-06-04T11:22:29;5.30;;;1.92;;
76576;SDS011;65441;44.748;37.600;2023-06-04T11:24:58;4.88;;;1.80;;
76576;SDS011;65441;44.748;37.600;2023-06-04T11:27:27;5.18;;;1.80;;
76576;SDS011;65441;44.748;37.600;2023-06-04T11:30:07;4.80;;;2.00;;
76576;SDS011;65441;44.748;37.600;2023-06-04T11:32:38;8.00;;;2.05;;
76576;SDS011;65441;44.748;37.600;2023-06-04T11:35:09;6.45;;;2.13;;
76576;SDS011;65441;44.748;37.600;2023-06-04T11:37:40;6.28;;;2.10;;
76576;SDS011;65441;44.748;37.600;2023-06-04T11:40:22;6.68;;;2.40;;
76576;SDS011;65441;44.748;37.600;2023-06-04T11:42:53;7.22;;;2.30;;
76576;SDS011;65441;44.748;37.600;2023-06-04T11:45:24;5.13;;;2.20;;
76576;SDS011;65441;44.748;37.600;2023-06-04T11:48:03;6.68;;;2.45;;
76576;SDS011;65441;44.748;37.600;2023-06-04T11:50:35;7.22;;;2.20;;
76576;SDS011;65441;44.748;37.600;2023-06-04T11:53:08;9.48;;;2.50;;
76576;SDS011;65441;44.748;37.600;2023-06-04T11:55:42;8.88;;;2.47;;
76576;SDS011;65441;44.748;37.600;2023-06-04T11:58:32;6.82;;;2.40;;
76576;SDS011;65441;44.748;37.600;2023-06-04T12:01:07;4.95;;;1.92;;
76576;SDS011;65441;44.748;37.600;2023-06-04T12:03:42;5.32;;;2.20;;
76576;SDS011;65441;44.748;37.600;2023-06-04T12:06:16;5.60;;;1.98;;
76576;SDS011;65441;44.748;37.600;2023-06-04T12:08:48;7.38;;;1.90;;
76576;SDS011;65441;44.748;37.600;2023-06-04T12:11:26;6.03;;;1.90;;
76576;SDS011;65441;44.748;37.600;2023-06-04T12:14:04;5.93;;;2.30;;
76576;SDS011;65441;44.748;37.600;2023-06-04T12:16:38;5.70;;;2.20;;
76576;SDS011;65441;44.748;37.600;2023-06-04T12:19:12;9.00;;;2.38;;
76576;SDS011;65441;44.748;37.600;2023-06-04T12:21:58;6.97;;;2.40;;
76576;SDS011;65441;44.748;37.600;2023-06-04T12:24:31;5.70;;;2.38;;
76576;SDS011;65441;44.748;37.600;2023-06-04T12:27:16;6.78;;;2.63;;
76576;SDS011;65441;44.748;37.600;2023-06-04T12:29:59;7.05;;;2.20;;
76576;SDS011;65441;44.748;37.600;2023-06-04T12:32:36;5.70;;;2.40;;
76576;SDS011;65441;44.748;37.600;2023-06-04T12:35:10;5.90;;;2.25;;
76576;SDS011;65441;44.748;37.600;2023-06-04T12:37:42;5.30;;;2.10;;
76576;SDS011;65441;44.748;37.600;2023-06-04T12:40:13;6.97;;;2.20;;
76576;SDS011;65441;44.748;37.600;2023-06-04T12:42:44;6.43;;;2.45;;
76576;SDS011;65441;44.748;37.600;2023-06-04T12:45:21;10.85;;;2.30;;
76576;SDS011;65441;44.748;37.600;2023-06-04T12:47:54;6.93;;;2.28;;
76576;SDS011;65441;44.748;37.600;2023-06-04T12:50:28;5.78;;;2.55;;
76576;SDS011;65441;44.748;37.600;2023-06-04T12:52:59;8.30;;;2.70;;
76576;SDS011;65441;44.748;37.600;2023-06-04T12:55:29;5.95;;;2.30;;
76576;SDS011;65441;44.748;37.600;2023-06-04T12:58:02;7.15;;;2.42;;
76576;SDS011;65441;44.748;37.600;2023-06-04T13:00:31;8.48;;;2.63;;
76576;SDS011;65441;44.748;37.600;2023-06-04T13:03:02;6.90;;;2.60;;
76576;SDS011;65441;44.748;37.600;2023-06-04T13:05:36;6.00;;;2.55;;
76576;SDS011;65441;44.748;37.600;2023-06-04T13:08:09;6.60;;;2.63;;
76576;SDS011;65441;44.748;37.600;2023-06-04T13:10:38;6.55;;;2.65;;
76576;SDS011;65441;44.748;37.600;2023-06-04T13:13:07;6.35;;;2.60;;
76576;SDS011;65441;44.748;37.600;2023-06-04T13:15:36;5.68;;;3.10;;
76576;SDS011;65441;44.748;37.600;2023-06-04T13:18:05;6.75;;;2.60;;
76576;SDS011;65441;44.748;37.600;2023-06-04T13:20:39;5.97;;;2.03;;
76576;SDS011;65441;44.748;37.600;2023-06-04T13:25:42;6.82;;;2.30;;
76576;SDS011;65441;44.748;37.600;2023-06-04T13:28:13;4.68;;;2.17;;
76576;SDS011;65441;44.748;37.600;2023-06-04T13:30:42;7.45;;;2.17;;
76576;SDS011;65441;44.748;37.600;2023-06-04T13:33:13;7.97;;;2.50;;
76576;SDS011;65441;44.748;37.600;2023-06-04T13:35:43;6.78;;;2.10;;
76576;SDS011;65441;44.748;37.600;2023-06-04T13:38:13;7.43;;;2.55;;
76576;SDS011;65441;44.748;37.600;2023-06-04T13:40:42;6.53;;;2.20;;
76576;SDS011;65441;44.748;37.600;2023-06-04T13:43:11;5.05;;;2.20;;
76576;SDS011;65441;44.748;37.600;2023-06-04T13:45:40;6.30;;;2.40;;
76576;SDS011;65441;44.748;37.600;2023-06-04T13:48:11;6.25;;;2.70;;
76576;SDS011;65441;44.748;37.600;2023-06-04T13:50:43;8.02;;;2.70;;
76576;SDS011;65441;44.748;37.600;2023-06-04T13:53:14;6.20;;;2.60;;
76576;SDS011;65441;44.748;37.600;2023-06-04T13:55:43;7.50;;;2.53;;
76576;SDS011;65441;44.748;37.600;2023-06-04T13:58:12;7.80;;;2.45;;
76576;SDS011;65441;44.748;37.600;2023-06-04T14:00:42;6.90;;;2.47;;
76576;SDS011;65441;44.748;37.600;2023-06-04T14:03:15;5.47;;;2.20;;
76576;SDS011;65441;44.748;37.600;2023-06-04T14:05:45;6.82;;;2.60;;
76576;SDS011;65441;44.748;37.600;2023-06-04T14:08:16;7.63;;;2.67;;
76576;SDS011;65441;44.748;37.600;2023-06-04T14:10:45;5.57;;;2.60;;
76576;SDS011;65441;44.748;37.600;2023-06-04T14:13:14;5.70;;;2.45;;
76576;SDS011;65441;44.748;37.600;2023-06-04T14:15:43;6.20;;;2.50;;
76576;SDS011;65441;44.748;37.600;2023-06-04T14:18:12;9.77;;;2.78;;
76576;SDS011;65441;44.748;37.600;2023-06-04T14:20:43;7.07;;;2.90;;
76576;SDS011;65441;44.748;37.600;2023-06-04T14:23:12;7.13;;;2.35;;
76576;SDS011;65441;44.748;37.600;2023-06-04T14:25:45;5.65;;;2.50;;
76576;SDS011;65441;44.748;37.600;2023-06-04T14:28:14;6.30;;;2.83;;
76576;SDS011;65441;44.748;37.600;2023-06-04T14:30:45;7.70;;;2.63;;
76576;SDS011;65441;44.748;37.600;2023-06-04T14:33:14;8.80;;;3.17;;
76576;SDS011;65441;44.748;37.600;2023-06-04T14:35:43;11.52;;;3.40;;
76576;SDS011;65441;44.748;37.600;2023-06-04T14:38:13;7.78;;;2.72;;
76576;SDS011;65441;44.748;37.600;2023-06-04T14:40:43;7.15;;;2.72;;
76576;SDS011;65441;44.748;37.600;2023-06-04T14:43:13;8.95;;;3.35;;
76576;SDS011;65441;44.748;37.600;2023-06-04T14:45:43;6.90;;;2.80;;
76576;SDS011;65441;44.748;37.600;2023-06-04T14:48:14;7.97;;;3.42;;
76576;SDS011;65441;44.748;37.600;2023-06-04T14:50:45;7.75;;;2.75;;
76576;SDS011;65441;44.748;37.600;2023-06-04T14:53:20;7.72;;;2.60;;
76576;SDS011;65441;44.748;37.600;2023-06-04T14:55:51;6.75;;;2.70;;
76576;SDS011;65441;44.748;37.600;2023-06-04T14:58:23;7.38;;;2.80;;
76576;SDS011;65441;44.748;37.600;2023-06-04T15:00:52;8.93;;;3.13;;
76576;SDS011;65441;44.748;37.600;2023-06-04T15:03:26;10.60;;;3.05;;
76576;SDS011;65441;44.748;37.600;2023-06-04T15:05:55;9.25;;;2.72;;
76576;SDS011;65441;44.748;37.600;2023-06-04T15:08:25;6.55;;;2.65;;